sensor_id;sensor_type;location;lat;lon;timestamp;P1;durP1;ratioP1;P2;durP2;ratioP2
55031;SDS011;40928;51.076;7.950;2023-02-28T00:00:21;4.43;;;1.17;;
55031;SDS011;40928;51.076;7.950;2023-02-28T00:02:47;4.63;;;1.27;;
55031;SDS011;40928;51.076;7.950;2023-02-28T00:05:14;4.78;;;1.52;;
55031;SDS011;40928;51.076;7.950;2023-02-28T00:07:42;2.42;;;1.40;;
55031;SDS011;40928;51.076;7.950;2023-02-28T00:10:08;5.93;;;1.40;;
55031;SDS011;40928;51.076;7.950;2023-02-28T00:12:36;7.25;;;1.80;;
55031;SDS011;40928;51.076;7.950;2023-02-28T00:15:05;3.20;;;1.23;;
55031;SDS011;40928;51.076;7.950;2023-02-28T00:17:31;3.97;;;1.40;;
55031;SDS011;40928;51.076;7.950;2023-02-28T00:19:57;2.03;;;1.20;;
55031;SDS011;40928;51.076;7.950;2023-02-28T00:22:26;1.58;;;1.13;;
55031;SDS011;40928;51.076;7.950;2023-02-28T00:24:52;2.72;;;0.90;;
55031;SDS011;40928;51.076;7.950;2023-02-28T00:27:18;2.65;;;1.20;;
55031;SDS011;40928;51.076;7.950;2023-02-28T00:29:46;3.45;;;1.42;;
55031;SDS011;40928;51.076;7.950;2023-02-28T00:32:11;3.35;;;1.20;;
55031;SDS011;40928;51.076;7.950;2023-02-28T00:34:37;2.65;;;1.20;;
55031;SDS011;40928;51.076;7.950;2023-02-28T00:37:03;2.35;;;0.95;;
55031;SDS011;40928;51.076;7.950;2023-02-28T00:39:32;3.13;;;0.90;;
55031;SDS011;40928;51.076;7.950;2023-02-28T00:41:59;3.88;;;1.50;;
55031;SDS011;40928;51.076;7.950;2023-02-28T00:44:24;3.70;;;1.70;;
55031;SDS011;40928;51.076;7.950;2023-02-28T00:46:50;3.13;;;1.23;;
55031;SDS011;40928;51.076;7.950;2023-02-28T00:49:16;2.97;;;1.17;;
55031;SDS011;40928;51.076;7.950;2023-02-28T00:51:42;1.48;;;0.93;;
55031;SDS011;40928;51.076;7.950;2023-02-28T00:54:08;2.55;;;1.13;;
55031;SDS011;40928;51.076;7.950;2023-02-28T00:56:33;2.15;;;1.50;;
55031;SDS011;40928;51.076;7.950;2023-02-28T00:58:59;2.58;;;1.45;;
55031;SDS011;40928;51.076;7.950;2023-02-28T01:01:24;3.05;;;1.35;;
55031;SDS011;40928;51.076;7.950;2023-02-28T01:03:50;4.50;;;1.30;;
55031;SDS011;40928;51.076;7.950;2023-02-28T01:06:15;3.20;;;1.27;;
55031;SDS011;40928;51.076;7.950;2023-02-28T01:08:41;3.17;;;1.35;;
55031;SDS011;40928;51.076;7.950;2023-02-28T01:11:11;2.35;;;1.50;;
55031;SDS011;40928;51.076;7.950;2023-02-28T01:13:39;3.97;;;1.70;;
55031;SDS011;40928;51.076;7.950;2023-02-28T01:16:05;4.57;;;1.85;;
55031;SDS011;40928;51.076;7.950;2023-02-28T01:18:30;5.38;;;1.63;;
55031;SDS011;40928;51.076;7.950;2023-02-28T01:20:56;2.90;;;1.85;;
55031;SDS011;40928;51.076;7.950;2023-02-28T01:23:22;2.45;;;1.25;;
55031;SDS011;40928;51.076;7.950;2023-02-28T01:25:49;7.75;;;1.83;;
55031;SDS011;40928;51.076;7.950;2023-02-28T01:28:17;4.78;;;1.90;;
55031;SDS011;40928;51.076;7.950;2023-02-28T01:30:46;4.57;;;1.80;;
55031;SDS011;40928;51.076;7.950;2023-02-28T01:33:13;5.28;;;1.52;;
55031;SDS011;40928;51.076;7.950;2023-02-28T01:35:40;5.30;;;1.45;;
55031;SDS011;40928;51.076;7.950;2023-02-28T01:38:07;4.30;;;1.83;;
55031;SDS011;40928;51.076;7.950;2023-02-28T01:40:32;8.07;;;2.10;;
55031;SDS011;40928;51.076;7.950;2023-02-28T01:42:58;3.80;;;1.42;;
55031;SDS011;40928;51.076;7.950;2023-02-28T01:47:53;3.55;;;1.73;;
55031;SDS011;40928;51.076;7.950;2023-02-28T01:50:26;2.30;;;1.05;;
55031;SDS011;40928;51.076;7.950;2023-02-28T01:52:57;5.38;;;1.38;;
55031;SDS011;40928;51.076;7.950;2023-02-28T01:55:30;4.05;;;1.20;;
55031;SDS011;40928;51.076;7.950;2023-02-28T01:57:58;1.95;;;1.25;;
55031;SDS011;40928;51.076;7.950;2023-02-28T02:00:27;5.53;;;1.33;;
55031;SDS011;40928;51.076;7.950;2023-02-28T02:02:55;1.63;;;0.82;;
55031;SDS011;40928;51.076;7.950;2023-02-28T02:05:25;2.35;;;1.15;;
55031;SDS011;40928;51.076;7.950;2023-02-28T02:08:04;4.28;;;1.10;;
55031;SDS011;40928;51.076;7.950;2023-02-28T02:16:00;2.83;;;1.35;;
55031;SDS011;40928;51.076;7.950;2023-02-28T02:18:36;4.70;;;1.20;;
55031;SDS011;40928;51.076;7.950;2023-02-28T02:34:26;2.15;;;1.30;;
55031;SDS011;40928;51.076;7.950;2023-02-28T02:37:08;3.03;;;1.02;;
55031;SDS011;40928;51.076;7.950;2023-02-28T02:42:23;4.28;;;1.17;;
55031;SDS011;40928;51.076;7.950;2023-02-28T02:48:01;3.22;;;1.75;;
55031;SDS011;40928;51.076;7.950;2023-02-28T02:50:30;2.72;;;1.52;;
55031;SDS011;40928;51.076;7.950;2023-02-28T02:53:02;1.52;;;1.17;;
55031;SDS011;40928;51.076;7.950;2023-02-28T02:55:32;2.97;;;1.35;;
55031;SDS011;40928;51.076;7.950;2023-02-28T02:58:03;3.28;;;1.25;;
55031;SDS011;40928;51.076;7.950;2023-02-28T03:00:35;2.92;;;1.23;;
55031;SDS011;40928;51.076;7.950;2023-02-28T03:03:08;6.45;;;1.95;;
55031;SDS011;40928;51.076;7.950;2023-02-28T03:05:39;4.18;;;1.60;;
55031;SDS011;40928;51.076;7.950;2023-02-28T03:08:11;2.97;;;1.35;;
55031;SDS011;40928;51.076;7.950;2023-02-28T03:10:38;7.75;;;2.13;;
55031;SDS011;40928;51.076;7.950;2023-02-28T03:24:27;10.63;;;1.92;;
55031;SDS011;40928;51.076;7.950;2023-02-28T03:27:05;3.67;;;1.48;;
55031;SDS011;40928;51.076;7.950;2023-02-28T03:29:42;3.20;;;1.70;;
55031;SDS011;40928;51.076;7.950;2023-02-28T03:32:35;5.32;;;1.90;;
55031;SDS011;40928;51.076;7.950;2023-02-28T03:35:02;4.65;;;1.70;;
55031;SDS011;40928;51.076;7.950;2023-02-28T03:38:58;3.20;;;1.35;;
55031;SDS011;40928;51.076;7.950;2023-02-28T03:41:31;2.80;;;1.27;;
55031;SDS011;40928;51.076;7.950;2023-02-28T03:44:10;4.50;;;1.30;;
55031;SDS011;40928;51.076;7.950;2023-02-28T03:46:41;4.75;;;1.70;;
55031;SDS011;40928;51.076;7.950;2023-02-28T03:49:19;4.95;;;1.92;;
55031;SDS011;40928;51.076;7.950;2023-02-28T03:51:49;2.88;;;1.25;;
55031;SDS011;40928;51.076;7.950;2023-02-28T03:54:28;7.22;;;1.65;;
55031;SDS011;40928;51.076;7.950;2023-02-28T03:56:59;2.13;;;1.23;;
55031;SDS011;40928;51.076;7.950;2023-02-28T03:59:32;3.47;;;1.10;;
55031;SDS011;40928;51.076;7.950;2023-02-28T04:04:31;2.75;;;1.50;;
55031;SDS011;40928;51.076;7.950;2023-02-28T04:07:04;7.57;;;1.48;;
55031;SDS011;40928;51.076;7.950;2023-02-28T04:09:31;3.20;;;1.83;;
55031;SDS011;40928;51.076;7.950;2023-02-28T04:11:57;4.13;;;1.67;;
55031;SDS011;40928;51.076;7.950;2023-02-28T04:14:23;2.40;;;1.50;;
55031;SDS011;40928;51.076;7.950;2023-02-28T04:16:52;3.38;;;1.60;;
55031;SDS011;40928;51.076;7.950;2023-02-28T04:19:17;3.92;;;1.60;;
55031;SDS011;40928;51.076;7.950;2023-02-28T04:21:47;4.28;;;1.42;;
55031;SDS011;40928;51.076;7.950;2023-02-28T04:24:16;2.40;;;0.85;;
55031;SDS011;40928;51.076;7.950;2023-02-28T04:26:44;2.55;;;1.40;;
55031;SDS011;40928;51.076;7.950;2023-02-28T04:29:12;1.33;;;1.00;;
55031;SDS011;40928;51.076;7.950;2023-02-28T04:31:39;7.03;;;1.75;;
55031;SDS011;40928;51.076;7.950;2023-02-28T04:34:05;4.93;;;1.83;;
55031;SDS011;40928;51.076;7.950;2023-02-28T04:36:31;8.73;;;3.55;;
55031;SDS011;40928;51.076;7.950;2023-02-28T04:38:57;7.25;;;2.40;;
55031;SDS011;40928;51.076;7.950;2023-02-28T04:41:22;3.70;;;2.30;;
55031;SDS011;40928;51.076;7.950;2023-02-28T04:43:48;4.07;;;2.35;;
55031;SDS011;40928;51.076;7.950;2023-02-28T04:46:14;5.20;;;2.20;;
55031;SDS011;40928;51.076;7.950;2023-02-28T04:48:40;4.82;;;2.33;;
55031;SDS011;40928;51.076;7.950;2023-02-28T04:53:32;5.45;;;1.90;;
55031;SDS011;40928;51.076;7.950;2023-02-28T04:55:59;3.17;;;1.50;;
55031;SDS011;40928;51.076;7.950;2023-02-28T04:58:24;4.18;;;1.98;;
55031;SDS011;40928;51.076;7.950;2023-02-28T05:00:50;4.13;;;1.75;;
55031;SDS011;40928;51.076;7.950;2023-02-28T05:03:19;3.40;;;1.80;;
55031;SDS011;40928;51.076;7.950;2023-02-28T05:05:47;4.32;;;2.20;;
55031;SDS011;40928;51.076;7.950;2023-02-28T05:08:12;6.28;;;1.85;;
55031;SDS011;40928;51.076;7.950;2023-02-28T05:10:38;2.85;;;1.33;;
55031;SDS011;40928;51.076;7.950;2023-02-28T05:13:03;4.32;;;1.73;;
55031;SDS011;40928;51.076;7.950;2023-02-28T05:15:29;3.05;;;2.00;;
55031;SDS011;40928;51.076;7.950;2023-02-28T05:17:55;10.00;;;2.35;;
55031;SDS011;40928;51.076;7.950;2023-02-28T05:20:20;4.53;;;2.03;;
55031;SDS011;40928;51.076;7.950;2023-02-28T05:22:46;4.75;;;2.22;;
55031;SDS011;40928;51.076;7.950;2023-02-28T05:25:13;2.53;;;1.48;;
55031;SDS011;40928;51.076;7.950;2023-02-28T05:27:42;4.30;;;1.95;;
55031;SDS011;40928;51.076;7.950;2023-02-28T05:30:08;7.22;;;1.92;;
55031;SDS011;40928;51.076;7.950;2023-02-28T05:32:37;5.25;;;1.80;;
55031;SDS011;40928;51.076;7.950;2023-02-28T05:35:03;5.20;;;1.40;;
55031;SDS011;40928;51.076;7.950;2023-02-28T05:37:29;3.83;;;2.22;;
55031;SDS011;40928;51.076;7.950;2023-02-28T05:39:55;5.32;;;2.17;;
55031;SDS011;40928;51.076;7.950;2023-02-28T05:42:20;4.63;;;2.03;;
55031;SDS011;40928;51.076;7.950;2023-02-28T05:44:46;4.32;;;2.53;;
55031;SDS011;40928;51.076;7.950;2023-02-28T05:47:11;5.00;;;2.25;;
55031;SDS011;40928;51.076;7.950;2023-02-28T05:49:40;5.93;;;3.75;;
55031;SDS011;40928;51.076;7.950;2023-02-28T05:52:07;4.18;;;2.67;;
55031;SDS011;40928;51.076;7.950;2023-02-28T05:54:33;4.10;;;2.15;;
55031;SDS011;40928;51.076;7.950;2023-02-28T05:56:58;4.25;;;2.20;;
55031;SDS011;40928;51.076;7.950;2023-02-28T05:59:24;4.93;;;1.98;;
55031;SDS011;40928;51.076;7.950;2023-02-28T06:01:51;2.53;;;1.83;;
55031;SDS011;40928;51.076;7.950;2023-02-28T06:04:20;4.35;;;2.10;;
55031;SDS011;40928;51.076;7.950;2023-02-28T06:06:47;5.25;;;2.00;;
55031;SDS011;40928;51.076;7.950;2023-02-28T06:09:13;5.13;;;1.98;;
55031;SDS011;40928;51.076;7.950;2023-02-28T06:11:40;3.92;;;1.85;;
55031;SDS011;40928;51.076;7.950;2023-02-28T06:14:05;4.55;;;2.67;;
55031;SDS011;40928;51.076;7.950;2023-02-28T06:16:32;7.65;;;3.22;;
55031;SDS011;40928;51.076;7.950;2023-02-28T06:19:00;8.82;;;3.25;;
55031;SDS011;40928;51.076;7.950;2023-02-28T06:21:27;7.68;;;2.90;;
55031;SDS011;40928;51.076;7.950;2023-02-28T06:23:53;10.05;;;3.63;;
55031;SDS011;40928;51.076;7.950;2023-02-28T06:26:20;3.53;;;2.28;;
55031;SDS011;40928;51.076;7.950;2023-02-28T06:28:46;8.25;;;2.65;;
55031;SDS011;40928;51.076;7.950;2023-02-28T06:31:13;6.68;;;2.55;;
55031;SDS011;40928;51.076;7.950;2023-02-28T06:33:41;10.13;;;2.80;;
55031;SDS011;40928;51.076;7.950;2023-02-28T06:36:08;4.60;;;2.65;;
55031;SDS011;40928;51.076;7.950;2023-02-28T06:38:34;7.75;;;3.15;;
55031;SDS011;40928;51.076;7.950;2023-02-28T06:41:02;14.77;;;2.58;;
55031;SDS011;40928;51.076;7.950;2023-02-28T06:43:29;5.82;;;2.35;;
55031;SDS011;40928;51.076;7.950;2023-02-28T06:46:03;7.88;;;2.25;;
55031;SDS011;40928;51.076;7.950;2023-02-28T06:48:32;4.10;;;1.80;;
55031;SDS011;40928;51.076;7.950;2023-02-28T06:51:02;9.38;;;2.20;;
55031;SDS011;40928;51.076;7.950;2023-02-28T06:53:32;3.38;;;1.73;;
55031;SDS011;40928;51.076;7.950;2023-02-28T06:55:58;5.68;;;3.05;;
55031;SDS011;40928;51.076;7.950;2023-02-28T06:58:23;7.07;;;2.72;;
55031;SDS011;40928;51.076;7.950;2023-02-28T07:00:50;4.78;;;1.95;;
55031;SDS011;40928;51.076;7.950;2023-02-28T07:03:17;7.20;;;2.20;;
55031;SDS011;40928;51.076;7.950;2023-02-28T07:05:43;4.03;;;2.30;;
55031;SDS011;40928;51.076;7.950;2023-02-28T07:08:10;4.22;;;1.85;;
55031;SDS011;40928;51.076;7.950;2023-02-28T07:10:38;3.20;;;2.05;;
55031;SDS011;40928;51.076;7.950;2023-02-28T07:13:05;5.70;;;2.60;;
55031;SDS011;40928;51.076;7.950;2023-02-28T07:15:31;4.38;;;2.55;;
55031;SDS011;40928;51.076;7.950;2023-02-28T07:17:57;4.43;;;2.58;;
55031;SDS011;40928;51.076;7.950;2023-02-28T07:20:23;7.13;;;2.60;;
55031;SDS011;40928;51.076;7.950;2023-02-28T07:22:49;5.75;;;2.08;;
55031;SDS011;40928;51.076;7.950;2023-02-28T07:25:24;3.47;;;2.50;;
55031;SDS011;40928;51.076;7.950;2023-02-28T07:27:51;9.05;;;2.95;;
55031;SDS011;40928;51.076;7.950;2023-02-28T07:30:17;4.07;;;2.75;;
55031;SDS011;40928;51.076;7.950;2023-02-28T07:32:43;5.18;;;2.25;;
55031;SDS011;40928;51.076;7.950;2023-02-28T07:35:10;7.95;;;2.40;;
55031;SDS011;40928;51.076;7.950;2023-02-28T07:37:36;5.10;;;2.22;;
55031;SDS011;40928;51.076;7.950;2023-02-28T07:40:05;4.63;;;2.65;;
55031;SDS011;40928;51.076;7.950;2023-02-28T07:42:34;3.45;;;2.35;;
55031;SDS011;40928;51.076;7.950;2023-02-28T07:45:03;6.85;;;5.63;;
55031;SDS011;40928;51.076;7.950;2023-02-28T07:47:30;10.60;;;5.30;;
55031;SDS011;40928;51.076;7.950;2023-02-28T07:49:57;7.63;;;4.32;;
55031;SDS011;40928;51.076;7.950;2023-02-28T07:52:23;4.82;;;3.40;;
55031;SDS011;40928;51.076;7.950;2023-02-28T07:54:52;3.75;;;2.63;;
55031;SDS011;40928;51.076;7.950;2023-02-28T07:57:18;2.80;;;1.85;;
55031;SDS011;40928;51.076;7.950;2023-02-28T07:59:44;3.42;;;1.98;;
55031;SDS011;40928;51.076;7.950;2023-02-28T08:02:17;2.10;;;1.50;;
55031;SDS011;40928;51.076;7.950;2023-02-28T08:04:44;4.45;;;2.03;;
55031;SDS011;40928;51.076;7.950;2023-02-28T08:07:14;5.78;;;2.05;;
55031;SDS011;40928;51.076;7.950;2023-02-28T08:09:41;7.35;;;3.28;;
55031;SDS011;40928;51.076;7.950;2023-02-28T08:12:07;5.65;;;3.72;;
55031;SDS011;40928;51.076;7.950;2023-02-28T08:14:34;6.28;;;3.10;;
55031;SDS011;40928;51.076;7.950;2023-02-28T08:17:02;3.08;;;2.03;;
55031;SDS011;40928;51.076;7.950;2023-02-28T08:19:30;5.55;;;2.08;;
55031;SDS011;40928;51.076;7.950;2023-02-28T08:21:56;3.80;;;1.83;;
55031;SDS011;40928;51.076;7.950;2023-02-28T08:24:22;2.10;;;1.60;;
55031;SDS011;40928;51.076;7.950;2023-02-28T08:26:49;3.15;;;1.63;;
55031;SDS011;40928;51.076;7.950;2023-02-28T08:29:15;3.97;;;1.90;;
55031;SDS011;40928;51.076;7.950;2023-02-28T08:31:41;2.65;;;1.65;;
55031;SDS011;40928;51.076;7.950;2023-02-28T08:34:07;4.00;;;1.85;;
55031;SDS011;40928;51.076;7.950;2023-02-28T08:36:36;2.88;;;1.83;;
55031;SDS011;40928;51.076;7.950;2023-02-28T08:39:04;3.53;;;2.38;;
55031;SDS011;40928;51.076;7.950;2023-02-28T08:41:30;3.15;;;1.58;;
55031;SDS011;40928;51.076;7.950;2023-02-28T08:43:55;3.92;;;1.30;;
55031;SDS011;40928;51.076;7.950;2023-02-28T08:46:22;8.27;;;3.60;;
55031;SDS011;40928;51.076;7.950;2023-02-28T08:48:53;5.15;;;2.20;;
55031;SDS011;40928;51.076;7.950;2023-02-28T08:51:19;7.90;;;2.38;;
55031;SDS011;40928;51.076;7.950;2023-02-28T08:53:51;3.92;;;1.80;;
55031;SDS011;40928;51.076;7.950;2023-02-28T08:56:18;3.00;;;1.30;;
55031;SDS011;40928;51.076;7.950;2023-02-28T08:58:45;2.30;;;1.38;;
55031;SDS011;40928;51.076;7.950;2023-02-28T09:03:41;3.55;;;1.52;;
55031;SDS011;40928;51.076;7.950;2023-02-28T09:06:08;4.13;;;0.95;;
55031;SDS011;40928;51.076;7.950;2023-02-28T09:08:35;2.15;;;1.17;;
55031;SDS011;40928;51.076;7.950;2023-02-28T09:11:01;2.47;;;1.30;;
55031;SDS011;40928;51.076;7.950;2023-02-28T09:13:28;5.97;;;2.50;;
55031;SDS011;40928;51.076;7.950;2023-02-28T09:15:57;5.40;;;1.88;;
55031;SDS011;40928;51.076;7.950;2023-02-28T09:18:26;3.28;;;1.73;;
55031;SDS011;40928;51.076;7.950;2023-02-28T09:20:52;1.70;;;1.55;;
55031;SDS011;40928;51.076;7.950;2023-02-28T09:23:18;2.75;;;1.33;;
55031;SDS011;40928;51.076;7.950;2023-02-28T09:25:47;4.38;;;1.85;;
55031;SDS011;40928;51.076;7.950;2023-02-28T09:28:15;3.58;;;1.70;;
55031;SDS011;40928;51.076;7.950;2023-02-28T09:30:45;3.47;;;1.40;;
55031;SDS011;40928;51.076;7.950;2023-02-28T09:33:18;1.98;;;0.90;;
55031;SDS011;40928;51.076;7.950;2023-02-28T09:35:47;4.72;;;1.58;;
55031;SDS011;40928;51.076;7.950;2023-02-28T09:38:14;1.30;;;1.08;;
55031;SDS011;40928;51.076;7.950;2023-02-28T09:40:49;7.43;;;2.20;;
55031;SDS011;40928;51.076;7.950;2023-02-28T09:43:43;4.75;;;1.67;;
55031;SDS011;40928;51.076;7.950;2023-02-28T09:46:21;3.72;;;1.52;;
55031;SDS011;40928;51.076;7.950;2023-02-28T09:48:53;4.53;;;1.45;;
55031;SDS011;40928;51.076;7.950;2023-02-28T09:53:54;2.20;;;1.50;;
55031;SDS011;40928;51.076;7.950;2023-02-28T09:56:36;2.38;;;1.17;;
55031;SDS011;40928;51.076;7.950;2023-02-28T09:59:07;2.13;;;1.40;;
55031;SDS011;40928;51.076;7.950;2023-02-28T10:07:02;4.18;;;1.90;;
55031;SDS011;40928;51.076;7.950;2023-02-28T10:09:42;5.47;;;2.53;;
55031;SDS011;40928;51.076;7.950;2023-02-28T10:12:12;3.72;;;1.77;;
55031;SDS011;40928;51.076;7.950;2023-02-28T10:14:45;7.75;;;3.47;;
55031;SDS011;40928;51.076;7.950;2023-02-28T10:17:21;6.93;;;3.03;;
55031;SDS011;40928;51.076;7.950;2023-02-28T10:20:04;3.88;;;1.58;;
55031;SDS011;40928;51.076;7.950;2023-02-28T10:25:36;5.63;;;2.40;;
55031;SDS011;40928;51.076;7.950;2023-02-28T10:28:16;5.95;;;2.20;;
55031;SDS011;40928;51.076;7.950;2023-02-28T10:30:46;7.00;;;3.10;;
55031;SDS011;40928;51.076;7.950;2023-02-28T10:33:23;5.65;;;2.13;;
55031;SDS011;40928;51.076;7.950;2023-02-28T10:35:52;3.17;;;1.63;;
55031;SDS011;40928;51.076;7.950;2023-02-28T10:38:20;4.60;;;2.20;;
55031;SDS011;40928;51.076;7.950;2023-02-28T10:43:37;4.78;;;1.70;;
55031;SDS011;40928;51.076;7.950;2023-02-28T10:48:39;4.47;;;1.55;;
55031;SDS011;40928;51.076;7.950;2023-02-28T10:51:26;7.28;;;2.42;;
55031;SDS011;40928;51.076;7.950;2023-02-28T10:54:01;3.00;;;1.77;;
55031;SDS011;40928;51.076;7.950;2023-02-28T10:56:28;4.18;;;2.35;;
55031;SDS011;40928;51.076;7.950;2023-02-28T10:58:56;2.33;;;1.33;;
55031;SDS011;40928;51.076;7.950;2023-02-28T11:04:03;2.83;;;1.48;;
55031;SDS011;40928;51.076;7.950;2023-02-28T11:06:47;2.03;;;1.40;;
55031;SDS011;40928;51.076;7.950;2023-02-28T11:12:20;4.60;;;1.60;;
55031;SDS011;40928;51.076;7.950;2023-02-28T11:18:29;4.88;;;2.25;;
55031;SDS011;40928;51.076;7.950;2023-02-28T11:21:01;14.25;;;4.38;;
55031;SDS011;40928;51.076;7.950;2023-02-28T11:23:29;6.07;;;2.08;;
55031;SDS011;40928;51.076;7.950;2023-02-28T11:26:00;2.50;;;1.58;;
55031;SDS011;40928;51.076;7.950;2023-02-28T11:28:38;14.90;;;1.90;;
55031;SDS011;40928;51.076;7.950;2023-02-28T11:33:54;7.65;;;3.08;;
55031;SDS011;40928;51.076;7.950;2023-02-28T11:36:23;4.82;;;2.20;;
55031;SDS011;40928;51.076;7.950;2023-02-28T11:38:55;5.30;;;2.75;;
55031;SDS011;40928;51.076;7.950;2023-02-28T11:47:04;3.58;;;1.95;;
55031;SDS011;40928;51.076;7.950;2023-02-28T11:50:21;4.10;;;1.73;;
55031;SDS011;40928;51.076;7.950;2023-02-28T11:52:42;2.17;;;1.52;;
55031;SDS011;40928;51.076;7.950;2023-02-28T11:55:35;4.57;;;2.00;;
55031;SDS011;40928;51.076;7.950;2023-02-28T12:21:11;3.63;;;1.90;;
55031;SDS011;40928;51.076;7.950;2023-02-28T12:23:58;2.92;;;1.60;;
55031;SDS011;40928;51.076;7.950;2023-02-28T12:26:46;2.17;;;1.50;;
55031;SDS011;40928;51.076;7.950;2023-02-28T12:29:28;3.13;;;1.98;;
55031;SDS011;40928;51.076;7.950;2023-02-28T12:32:04;3.65;;;2.00;;
55031;SDS011;40928;51.076;7.950;2023-02-28T12:34:39;2.95;;;1.40;;
55031;SDS011;40928;51.076;7.950;2023-02-28T12:40:04;2.30;;;1.40;;
55031;SDS011;40928;51.076;7.950;2023-02-28T12:42:46;3.92;;;1.85;;
55031;SDS011;40928;51.076;7.950;2023-02-28T12:45:17;3.10;;;1.70;;
55031;SDS011;40928;51.076;7.950;2023-02-28T12:47:46;2.58;;;2.10;;
55031;SDS011;40928;51.076;7.950;2023-02-28T12:50:15;5.22;;;1.52;;
55031;SDS011;40928;51.076;7.950;2023-02-28T13:01:25;2.15;;;1.58;;
55031;SDS011;40928;51.076;7.950;2023-02-28T13:11:43;3.08;;;1.63;;
55031;SDS011;40928;51.076;7.950;2023-02-28T13:19:16;1.92;;;1.42;;
55031;SDS011;40928;51.076;7.950;2023-02-28T13:21:52;2.45;;;1.58;;
55031;SDS011;40928;51.076;7.950;2023-02-28T13:39:56;3.67;;;1.45;;
55031;SDS011;40928;51.076;7.950;2023-02-28T13:47:44;3.17;;;1.88;;
55031;SDS011;40928;51.076;7.950;2023-02-28T13:50:23;4.35;;;2.03;;
55031;SDS011;40928;51.076;7.950;2023-02-28T14:04:01;3.58;;;1.70;;
55031;SDS011;40928;51.076;7.950;2023-02-28T14:06:59;4.00;;;1.80;;
55031;SDS011;40928;51.076;7.950;2023-02-28T14:09:35;5.75;;;1.80;;
55031;SDS011;40928;51.076;7.950;2023-02-28T14:15:37;3.97;;;1.63;;
55031;SDS011;40928;51.076;7.950;2023-02-28T14:32:35;4.72;;;2.60;;
55031;SDS011;40928;51.076;7.950;2023-02-28T14:38:42;4.15;;;2.60;;
55031;SDS011;40928;51.076;7.950;2023-02-28T14:41:12;2.35;;;1.40;;
55031;SDS011;40928;51.076;7.950;2023-02-28T14:43:51;4.60;;;1.67;;
55031;SDS011;40928;51.076;7.950;2023-02-28T14:46:22;2.95;;;1.80;;
55031;SDS011;40928;51.076;7.950;2023-02-28T14:48:54;2.63;;;1.50;;
55031;SDS011;40928;51.076;7.950;2023-02-28T14:51:21;2.38;;;1.75;;
55031;SDS011;40928;51.076;7.950;2023-02-28T14:53:49;4.93;;;2.05;;
55031;SDS011;40928;51.076;7.950;2023-02-28T14:56:22;3.38;;;1.90;;
55031;SDS011;40928;51.076;7.950;2023-02-28T14:58:56;4.82;;;1.52;;
55031;SDS011;40928;51.076;7.950;2023-02-28T15:01:27;6.38;;;1.95;;
55031;SDS011;40928;51.076;7.950;2023-02-28T15:03:58;2.85;;;1.92;;
55031;SDS011;40928;51.076;7.950;2023-02-28T15:06:29;3.22;;;2.13;;
55031;SDS011;40928;51.076;7.950;2023-02-28T15:09:15;3.17;;;1.98;;
55031;SDS011;40928;51.076;7.950;2023-02-28T15:11:45;6.15;;;2.70;;
55031;SDS011;40928;51.076;7.950;2023-02-28T15:14:17;3.13;;;1.88;;
55031;SDS011;40928;51.076;7.950;2023-02-28T15:16:46;2.40;;;1.73;;
55031;SDS011;40928;51.076;7.950;2023-02-28T15:19:19;2.50;;;1.70;;
55031;SDS011;40928;51.076;7.950;2023-02-28T15:21:50;3.10;;;1.85;;
55031;SDS011;40928;51.076;7.950;2023-02-28T15:24:34;3.50;;;1.90;;
55031;SDS011;40928;51.076;7.950;2023-02-28T15:27:29;4.90;;;2.75;;
55031;SDS011;40928;51.076;7.950;2023-02-28T15:30:01;3.97;;;2.25;;
55031;SDS011;40928;51.076;7.950;2023-02-28T15:32:36;3.67;;;2.28;;
55031;SDS011;40928;51.076;7.950;2023-02-28T15:37:47;5.85;;;2.17;;
55031;SDS011;40928;51.076;7.950;2023-02-28T15:43:34;5.20;;;2.15;;
55031;SDS011;40928;51.076;7.950;2023-02-28T15:46:00;4.53;;;2.22;;
55031;SDS011;40928;51.076;7.950;2023-02-28T15:48:29;2.83;;;1.88;;
55031;SDS011;40928;51.076;7.950;2023-02-28T15:54:02;6.55;;;2.72;;
55031;SDS011;40928;51.076;7.950;2023-02-28T15:56:46;5.47;;;3.03;;
55031;SDS011;40928;51.076;7.950;2023-02-28T15:59:35;3.78;;;2.40;;
55031;SDS011;40928;51.076;7.950;2023-02-28T16:02:19;4.65;;;2.67;;
55031;SDS011;40928;51.076;7.950;2023-02-28T16:07:34;3.92;;;2.10;;
55031;SDS011;40928;51.076;7.950;2023-02-28T16:10:05;5.72;;;2.60;;
55031;SDS011;40928;51.076;7.950;2023-02-28T16:12:35;6.43;;;3.08;;
55031;SDS011;40928;51.076;7.950;2023-02-28T16:15:06;5.53;;;2.60;;
55031;SDS011;40928;51.076;7.950;2023-02-28T16:17:51;6.68;;;2.25;;
55031;SDS011;40928;51.076;7.950;2023-02-28T16:20:25;4.15;;;2.25;;
55031;SDS011;40928;51.076;7.950;2023-02-28T16:22:53;5.78;;;2.78;;
55031;SDS011;40928;51.076;7.950;2023-02-28T16:25:21;2.15;;;1.60;;
55031;SDS011;40928;51.076;7.950;2023-02-28T16:27:53;4.80;;;2.80;;
55031;SDS011;40928;51.076;7.950;2023-02-28T16:30:26;4.47;;;2.60;;
55031;SDS011;40928;51.076;7.950;2023-02-28T16:32:56;7.65;;;2.70;;
55031;SDS011;40928;51.076;7.950;2023-02-28T16:35:22;3.03;;;2.03;;
55031;SDS011;40928;51.076;7.950;2023-02-28T16:37:50;4.00;;;2.10;;
55031;SDS011;40928;51.076;7.950;2023-02-28T16:40:17;5.20;;;2.65;;
55031;SDS011;40928;51.076;7.950;2023-02-28T16:42:47;3.33;;;2.40;;
55031;SDS011;40928;51.076;7.950;2023-02-28T16:45:24;4.22;;;2.40;;
55031;SDS011;40928;51.076;7.950;2023-02-28T16:47:51;4.60;;;2.58;;
55031;SDS011;40928;51.076;7.950;2023-02-28T16:50:29;3.87;;;2.70;;
55031;SDS011;40928;51.076;7.950;2023-02-28T16:52:58;7.35;;;2.63;;
55031;SDS011;40928;51.076;7.950;2023-02-28T16:55:27;4.80;;;2.50;;
55031;SDS011;40928;51.076;7.950;2023-02-28T16:57:59;3.75;;;2.40;;
55031;SDS011;40928;51.076;7.950;2023-02-28T17:03:42;5.75;;;2.95;;
55031;SDS011;40928;51.076;7.950;2023-02-28T17:06:15;5.80;;;3.30;;
55031;SDS011;40928;51.076;7.950;2023-02-28T17:08:47;5.30;;;3.35;;
55031;SDS011;40928;51.076;7.950;2023-02-28T17:11:14;6.80;;;3.20;;
55031;SDS011;40928;51.076;7.950;2023-02-28T17:13:39;10.02;;;4.47;;
55031;SDS011;40928;51.076;7.950;2023-02-28T17:16:05;13.88;;;6.20;;
55031;SDS011;40928;51.076;7.950;2023-02-28T17:18:31;18.52;;;7.63;;
55031;SDS011;40928;51.076;7.950;2023-02-28T17:20:59;28.25;;;10.60;;
55031;SDS011;40928;51.076;7.950;2023-02-28T17:23:25;47.90;;;19.52;;
55031;SDS011;40928;51.076;7.950;2023-02-28T17:25:51;71.28;;;23.23;;
55031;SDS011;40928;51.076;7.950;2023-02-28T17:28:20;79.60;;;29.05;;
55031;SDS011;40928;51.076;7.950;2023-02-28T17:30:47;80.93;;;29.17;;
55031;SDS011;40928;51.076;7.950;2023-02-28T17:33:15;43.05;;;15.90;;
55031;SDS011;40928;51.076;7.950;2023-02-28T17:35:49;35.97;;;11.95;;
55031;SDS011;40928;51.076;7.950;2023-02-28T17:38:16;33.97;;;11.65;;
55031;SDS011;40928;51.076;7.950;2023-02-28T17:40:44;25.45;;;10.55;;
55031;SDS011;40928;51.076;7.950;2023-02-28T17:43:10;22.17;;;9.02;;
55031;SDS011;40928;51.076;7.950;2023-02-28T17:45:36;19.45;;;8.18;;
55031;SDS011;40928;51.076;7.950;2023-02-28T17:48:02;12.73;;;6.07;;
55031;SDS011;40928;51.076;7.950;2023-02-28T17:50:29;14.75;;;6.80;;
55031;SDS011;40928;51.076;7.950;2023-02-28T17:53:04;11.55;;;6.63;;
55031;SDS011;40928;51.076;7.950;2023-02-28T17:55:32;12.00;;;6.90;;
55031;SDS011;40928;51.076;7.950;2023-02-28T17:58:10;10.40;;;6.30;;
55031;SDS011;40928;51.076;7.950;2023-02-28T18:00:42;11.27;;;5.72;;
55031;SDS011;40928;51.076;7.950;2023-02-28T18:03:07;8.75;;;4.90;;
55031;SDS011;40928;51.076;7.950;2023-02-28T18:05:34;8.40;;;4.35;;
55031;SDS011;40928;51.076;7.950;2023-02-28T18:08:02;7.75;;;3.55;;
55031;SDS011;40928;51.076;7.950;2023-02-28T18:10:28;11.00;;;4.88;;
55031;SDS011;40928;51.076;7.950;2023-02-28T18:12:53;10.32;;;5.25;;
55031;SDS011;40928;51.076;7.950;2023-02-28T18:15:19;8.98;;;4.90;;
55031;SDS011;40928;51.076;7.950;2023-02-28T18:17:47;14.45;;;10.68;;